Time;durP1;ratioP1;P1;durP2;ratioP2;P2;SDS_P1;SDS_P2;PMS_P1;PMS_P2;Temp;Humidity;BMP_temperature;BMP_pressure;BME280_temperature;BME280_humidity;BME280_pressure;Samples;Min_cycle;Max_cycle;Signal;HPM_P1;HPM_P2
2021/05/25 00:01:33;;;;;;;2.00;0.50;;;;;;;14.87;85.88;97913.84;5043031;28;20206;-71
2021/05/25 00:04:00;;;;;;;1.60;0.57;;;;;;;14.64;88.69;97912.97;5025876;28;20309;-71
2021/05/25 00:06:27;;;;;;;1.00;0.50;;;;;;;14.76;86.23;97901.19;5040214;28;20202;-71
2021/05/25 00:08:54;;;;;;;2.13;0.67;;;;;;;14.67;85.65;97907.09;5026655;28;20217;-71
2021/05/25 00:11:21;;;;;;;0.70;0.50;;;;;;;14.60;86.58;97907.22;5039996;28;20595;-71
2021/05/25 00:13:48;;;;;;;0.60;0.50;;;;;;;14.55;86.15;97899.03;5028449;28;20591;-71
2021/05/25 00:16:15;;;;;;;3.57;0.50;;;;;;;14.63;85.86;97903.25;5040156;28;20254;-72
2021/05/25 00:18:42;;;;;;;1.70;0.60;;;;;;;14.39;86.88;97896.16;5034035;28;20668;-72
2021/05/25 00:21:09;;;;;;;1.40;0.50;;;;;;;14.54;85.60;97908.13;5032982;28;20206;-72
2021/05/25 00:23:36;;;;;;;1.87;0.60;;;;;;;14.49;86.36;97902.59;5038886;28;20598;-72
2021/05/25 00:26:04;;;;;;;3.23;0.60;;;;;;;14.49;86.26;97897.22;5035366;28;20241;-72
2021/05/25 00:28:30;;;;;;;1.57;0.60;;;;;;;14.36;86.39;97900.13;5025417;28;20211;-72
2021/05/25 00:30:57;;;;;;;1.53;0.67;;;;;;;14.26;87.64;97897.16;5037232;28;20244;-72
2021/05/25 00:33:24;;;;;;;2.40;0.50;;;;;;;14.29;87.12;97909.31;5039870;28;20310;-72
2021/05/25 00:35:53;;;;;;;1.20;0.60;;;;;;;14.36;86.23;97904.66;5043458;28;20216;-72
2021/05/25 00:38:20;;;;;;;2.83;0.97;;;;;;;14.30;86.82;97905.56;5041671;28;20205;-72
2021/05/25 00:40:48;;;;;;;0.50;0.50;;;;;;;14.24;87.45;97904.59;5041527;28;20209;-72
2021/05/25 00:43:15;;;;;;;1.47;0.40;;;;;;;14.11;87.56;97910.13;5040701;28;20222;-71
2021/05/25 00:45:43;;;;;;;1.13;0.57;;;;;;;13.93;88.62;97895.91;5042519;28;20318;-72
2021/05/25 00:48:09;;;;;;;0.60;0.57;;;;;;;13.82;92.48;97904.69;5040312;28;20202;-69
2021/05/25 00:50:37;;;;;;;0.70;0.50;;;;;;;13.53;93.36;97902.75;5026492;28;20210;-69
2021/05/25 00:53:05;;;;;;;0.37;0.37;;;;;;;14.08;90.94;97899.03;5038802;28;20320;-72
2021/05/25 00:55:33;;;;;;;2.20;0.80;;;;;;;14.07;91.18;97906.25;5037499;28;20202;-70
2021/05/25 00:58:03;;;;;;;1.50;0.70;;;;;;;13.79;95.49;97910.50;5041410;28;20263;-69
2021/05/25 01:00:32;;;;;;;1.33;0.77;;;;;;;14.00;93.43;97913.56;5037408;28;20578;-69
2021/05/25 01:02:59;;;;;;;3.13;0.80;;;;;;;14.18;90.71;97907.34;5029978;28;20227;-69
2021/05/25 01:05:26;;;;;;;2.63;0.70;;;;;;;14.39;89.44;97905.00;5040005;28;20653;-72
2021/05/25 01:07:53;;;;;;;0.87;0.60;;;;;;;14.22;90.53;97895.13;5027715;28;20213;-71
2021/05/25 01:10:26;;;;;;;1.27;0.60;;;;;;;14.29;89.84;97899.38;5035373;28;20229;-71
2021/05/25 01:12:55;;;;;;;1.30;0.60;;;;;;;14.17;89.56;97890.41;5044332;28;20236;-71
2021/05/25 01:15:23;;;;;;;1.60;0.50;;;;;;;13.92;91.26;97891.56;5032959;28;20290;-71
2021/05/25 01:17:52;;;;;;;0.90;0.60;;;;;;;14.17;89.53;97886.91;5029195;28;20209;-71
2021/05/25 01:20:20;;;;;;;2.23;0.80;;;;;;;13.66;91.74;97897.22;5032956;28;20637;-71
2021/05/25 01:22:48;;;;;;;2.37;0.83;;;;;;;14.31;87.68;97901.84;5040073;28;20228;-71
2021/05/25 01:25:16;;;;;;;4.27;0.63;;;;;;;13.70;89.94;97891.22;5038576;28;20244;-72
2021/05/25 01:27:50;;;;;;;2.73;0.70;;;;;;;13.98;86.86;97904.09;5031981;28;20224;-69
2021/05/25 01:30:19;;;;;;;1.40;0.70;;;;;;;13.63;88.05;97892.31;5036060;28;20201;-71
2021/05/25 01:32:46;;;;;;;2.83;0.80;;;;;;;13.48;89.26;97900.72;5042381;28;20233;-71
2021/05/25 01:35:13;;;;;;;1.70;0.43;;;;;;;14.03;85.38;97897.00;5037457;28;20193;-71
2021/05/25 01:37:40;;;;;;;1.37;0.80;;;;;;;14.19;84.29;97903.63;5046208;28;20212;-71
2021/05/25 01:40:10;;;;;;;2.93;0.90;;;;;;;13.37;86.36;97897.97;5033721;28;20215;-71
2021/05/25 01:42:38;;;;;;;3.10;0.60;;;;;;;13.81;85.21;97898.50;5039309;28;20228;-71
2021/05/25 01:45:06;;;;;;;1.77;0.67;;;;;;;13.75;84.70;97898.56;5035658;28;20233;-71
2021/05/25 01:47:33;;;;;;;2.67;0.70;;;;;;;14.08;82.48;97899.03;5040271;28;20202;-71
2021/05/25 01:50:12;;;;;;;0.80;0.50;;;;;;;14.08;82.63;97905.19;5030214;28;20209;-71
2021/05/25 01:52:39;;;;;;;2.17;0.63;;;;;;;13.57;85.36;97917.34;5035626;28;20323;-71
2021/05/25 01:55:08;;;;;;;1.27;0.87;;;;;;;13.96;83.77;97907.00;5037594;28;20256;-71
2021/05/25 01:57:36;;;;;;;2.50;0.70;;;;;;;13.66;86.72;97910.63;5040606;28;20209;-71
2021/05/25 02:00:06;;;;;;;0.67;0.60;;;;;;;13.94;82.96;97914.44;5030902;28;20240;-72
2021/05/25 02:02:33;;;;;;;3.17;0.70;;;;;;;13.36;86.61;97920.41;5035091;28;20267;-71
2021/05/25 02:05:00;;;;;;;2.03;0.70;;;;;;;14.02;82.44;97926.72;5033377;28;20238;-71
2021/05/25 02:07:27;;;;;;;1.87;0.70;;;;;;;13.89;81.81;97925.03;5042204;28;20201;-71
2021/05/25 02:09:54;;;;;;;3.57;0.80;;;;;;;13.93;81.64;97917.38;5026731;28;20292;-71
2021/05/25 02:12:21;;;;;;;2.03;0.67;;;;;;;13.77;81.62;97921.44;5042722;28;20201;-71
2021/05/25 02:14:48;;;;;;;1.00;0.60;;;;;;;14.14;80.20;97933.00;5030980;28;20208;-71
2021/05/25 02:17:15;;;;;;;1.80;0.63;;;;;;;13.91;80.87;97938.22;5033270;28;20608;-69
2021/05/25 02:19:42;;;;;;;3.07;0.80;;;;;;;14.14;79.54;97936.50;5033584;28;20202;-71
2021/05/25 02:22:10;;;;;;;0.77;0.53;;;;;;;14.33;78.18;97934.66;5027911;28;20728;-71
2021/05/25 02:24:37;;;;;;;1.10;0.63;;;;;;;13.86;79.36;97922.81;5038390;28;20286;-71
2021/05/25 02:27:04;;;;;;;3.07;1.13;;;;;;;14.35;76.64;97919.13;5031226;28;20209;-71
2021/05/25 02:29:32;;;;;;;1.93;0.70;;;;;;;13.99;79.23;97913.78;5033291;28;20205;-71
2021/05/25 02:31:58;;;;;;;2.97;1.10;;;;;;;13.62;80.74;97912.16;5036480;28;20213;-71
2021/05/25 02:34:25;;;;;;;1.63;0.60;;;;;;;14.22;76.48;97924.66;5038779;28;20251;-71
2021/05/25 02:36:52;;;;;;;2.87;0.60;;;;;;;14.13;76.10;97942.09;5028889;28;20210;-71
2021/05/25 02:39:19;;;;;;;2.10;0.60;;;;;;;13.97;77.92;97942.69;5033209;28;20608;-71
2021/05/25 02:41:45;;;;;;;2.70;0.80;;;;;;;13.82;78.72;97945.75;5035543;28;20588;-71
2021/05/25 02:44:12;;;;;;;3.03;0.90;;;;;;;13.87;78.00;97943.22;5036099;28;20298;-71
2021/05/25 02:46:40;;;;;;;1.47;0.70;;;;;;;13.40;79.39;97949.25;5042492;28;20214;-71
2021/05/25 02:49:07;;;;;;;4.83;0.77;;;;;;;13.79;77.74;97956.09;5039841;28;20231;-69
2021/05/25 02:51:33;;;;;;;3.70;0.93;;;;;;;13.92;78.08;97961.31;5027856;28;20205;-71
2021/05/25 02:54:00;;;;;;;2.20;0.60;;;;;;;13.66;78.18;97966.94;5025605;28;20262;-71
2021/05/25 02:56:27;;;;;;;1.00;0.50;;;;;;;13.43;79.98;97956.84;5039748;28;20198;-72
2021/05/25 02:58:54;;;;;;;4.27;1.23;;;;;;;13.39;79.69;97946.78;5033700;28;20587;-71
2021/05/25 03:01:21;;;;;;;3.03;0.83;;;;;;;13.77;77.23;97950.16;5040227;28;20688;-71
2021/05/25 03:03:49;;;;;;;4.10;0.63;;;;;;;13.39;79.11;97965.56;5021554;28;20240;-71
2021/05/25 03:06:16;;;;;;;2.20;0.70;;;;;;;13.63;77.89;97960.16;5032285;28;20236;-71
2021/05/25 03:08:42;;;;;;;0.60;0.50;;;;;;;13.45;78.74;97951.28;5027846;28;20222;-71
2021/05/25 03:11:09;;;;;;;2.50;0.50;;;;;;;13.29;79.24;97944.63;5043076;28;20205;-69
2021/05/25 03:13:36;;;;;;;1.27;0.70;;;;;;;13.57;79.54;97947.66;5039995;28;20245;-69
2021/05/25 03:16:03;;;;;;;2.60;0.70;;;;;;;13.67;77.57;97947.16;5028889;28;20736;-71
2021/05/25 03:18:30;;;;;;;1.33;0.70;;;;;;;13.46;78.24;97943.00;5032823;28;20546;-71
2021/05/25 03:20:57;;;;;;;2.90;0.60;;;;;;;13.38;78.90;97945.97;5031864;28;20248;-71
2021/05/25 03:23:24;;;;;;;1.07;0.60;;;;;;;13.10;80.50;97952.81;5034581;28;20222;-71
2021/05/25 03:25:53;;;;;;;2.17;0.57;;;;;;;13.23;79.74;97955.38;5029141;28;20232;-71
2021/05/25 03:28:20;;;;;;;2.37;0.53;;;;;;;13.24;79.63;97951.66;5037717;28;20238;-71
2021/05/25 03:30:46;;;;;;;1.60;0.63;;;;;;;13.55;77.60;97955.09;5027472;28;20259;-71
2021/05/25 03:33:14;;;;;;;2.63;0.80;;;;;;;13.33;78.21;97961.88;5032294;28;20653;-71
2021/05/25 03:35:40;;;;;;;0.60;0.33;;;;;;;13.11;78.50;97965.19;5018124;28;20211;-71
2021/05/25 03:38:08;;;;;;;1.47;0.50;;;;;;;12.94;79.15;97962.19;5043642;28;20204;-71
2021/05/25 03:40:35;;;;;;;3.93;0.60;;;;;;;13.47;77.36;97963.41;5019656;28;20205;-71
2021/05/25 03:43:02;;;;;;;1.50;0.50;;;;;;;13.33;77.56;97967.25;5039822;28;20225;-71
2021/05/25 03:45:29;;;;;;;1.90;0.70;;;;;;;13.78;75.79;97967.88;5039271;28;20245;-71
2021/05/25 03:47:56;;;;;;;1.27;0.60;;;;;;;13.27;80.43;97964.63;5044649;28;20290;-71
2021/05/25 03:50:24;;;;;;;1.20;0.47;;;;;;;13.39;78.17;97981.63;5022274;28;20210;-71
2021/05/25 03:52:52;;;;;;;2.40;0.60;;;;;;;13.26;78.53;97982.56;5039360;28;20237;-71
2021/05/25 03:55:29;;;;;;;0.77;0.70;;;;;;;13.53;78.02;97977.81;5040071;28;20245;-69
2021/05/25 04:00:40;;;;;;;1.07;0.60;;;;;;;13.48;77.94;97980.34;5029610;28;20217;-71
2021/05/25 04:03:07;;;;;;;1.33;0.93;;;;;;;13.76;76.83;97961.91;5050627;28;20258;-71
2021/05/25 04:05:34;;;;;;;3.53;0.67;;;;;;;13.86;76.27;97956.84;5031909;28;20225;-71
2021/05/25 04:08:01;;;;;;;1.10;0.60;;;;;;;14.13;74.29;97964.38;5034606;28;20220;-71
2021/05/25 04:10:29;;;;;;;2.47;0.90;;;;;;;14.13;73.21;97968.94;5033266;28;20570;-71
2021/05/25 04:12:55;;;;;;;0.70;0.40;;;;;;;13.64;73.83;97977.91;5040663;28;20252;-71
2021/05/25 04:15:23;;;;;;;0.50;0.40;;;;;;;13.93;72.13;97982.56;5035875;28;20206;-71
2021/05/25 04:17:52;;;;;;;0.40;0.40;;;;;;;14.02;72.40;97996.50;5036323;28;20220;-71
2021/05/25 04:20:19;;;;;;;2.10;0.50;;;;;;;14.10;71.66;97997.03;5030962;28;20217;-70
2021/05/25 04:22:46;;;;;;;3.60;0.60;;;;;;;13.91;72.27;97987.34;5041653;28;20236;-72
2021/05/25 04:25:14;;;;;;;3.17;0.70;;;;;;;13.81;72.17;98004.97;5038669;28;20374;-69
2021/05/25 04:27:41;;;;;;;0.30;0.30;;;;;;;13.90;71.69;98003.66;5038926;28;20215;-69
2021/05/25 04:30:10;;;;;;;0.80;0.30;;;;;;;13.27;74.57;98005.66;5027415;28;20232;-69
2021/05/25 04:32:37;;;;;;;2.20;0.50;;;;;;;14.04;72.96;98003.28;5039684;28;20231;-70
2021/05/25 04:35:05;;;;;;;0.70;0.47;;;;;;;14.10;71.75;98012.31;5038163;28;20227;-71
2021/05/25 04:37:32;;;;;;;1.47;0.40;;;;;;;14.13;70.86;98011.88;5040439;28;20201;-72
2021/05/25 04:39:58;;;;;;;1.27;0.50;;;;;;;14.13;71.50;98004.63;5033514;28;20252;-70
2021/05/25 04:42:25;;;;;;;0.93;0.60;;;;;;;13.96;73.12;98014.31;5046575;28;20224;-71
2021/05/25 04:44:53;;;;;;;1.70;0.50;;;;;;;14.52;69.67;98019.50;5031112;28;20318;-69
2021/05/25 04:47:20;;;;;;;1.47;0.40;;;;;;;14.47;70.57;98019.34;5039197;28;20202;-69
2021/05/25 04:49:47;;;;;;;1.50;0.53;;;;;;;14.47;68.73;98035.47;5033912;28;20202;-70
2021/05/25 04:52:13;;;;;;;1.07;0.60;;;;;;;14.86;67.58;98032.28;5045911;28;20683;-70
2021/05/25 04:54:40;;;;;;;0.87;0.40;;;;;;;14.92;66.24;98036.75;5035727;28;20292;-70
2021/05/25 04:57:09;;;;;;;0.60;0.40;;;;;;;14.50;70.03;98030.47;5041122;28;20205;-70
2021/05/25 04:59:36;;;;;;;1.87;0.40;;;;;;;15.09;66.00;98046.63;5038268;28;20217;-70
2021/05/25 05:02:03;;;;;;;0.50;0.40;;;;;;;14.80;67.35;98041.25;5032989;28;20212;-71
2021/05/25 05:04:30;;;;;;;1.77;0.60;;;;;;;14.97;65.81;98053.84;5032279;28;20202;-71
2021/05/25 05:06:57;;;;;;;0.83;0.30;;;;;;;14.72;65.63;98050.44;5026758;28;20264;-69
2021/05/25 05:09:24;;;;;;;0.53;0.30;;;;;;;15.01;64.58;98055.03;5036608;28;20202;-69
2021/05/25 05:11:51;;;;;;;1.33;0.50;;;;;;;14.80;64.48;98063.56;5037524;28;20202;-70
2021/05/25 05:14:17;;;;;;;5.00;0.50;;;;;;;15.26;62.26;98071.84;5027522;28;20236;-70
2021/05/25 05:16:44;;;;;;;0.40;0.40;;;;;;;15.35;64.24;98064.28;5042152;28;20208;-70
2021/05/25 05:19:12;;;;;;;1.67;0.50;;;;;;;15.27;62.06;98075.34;5026877;28;20210;-71
2021/05/25 05:21:39;;;;;;;1.30;0.40;;;;;;;15.59;60.91;98079.41;5034405;28;20206;-71
2021/05/25 05:24:07;;;;;;;0.87;0.40;;;;;;;15.10;63.22;98060.91;5027647;28;20231;-69
2021/05/25 05:26:34;;;;;;;1.50;0.47;;;;;;;14.71;66.09;98069.47;5038817;28;20280;-71
2021/05/25 05:29:01;;;;;;;2.20;0.40;;;;;;;15.48;63.08;98072.16;5030729;28;20687;-72
2021/05/25 05:31:28;;;;;;;4.10;0.57;;;;;;;15.83;59.83;98073.88;5025041;28;20198;-71
2021/05/25 05:33:54;;;;;;;1.07;0.60;;;;;;;15.53;61.34;98075.81;5024316;28;20734;-73
2021/05/25 05:36:22;;;;;;;0.87;0.43;;;;;;;16.04;57.91;98077.84;5052229;28;20658;-80
2021/05/25 05:38:49;;;;;;;1.03;0.30;;;;;;;15.98;57.36;98076.94;5059563;28;20296;-79
2021/05/25 05:41:16;;;;;;;1.42;0.45;;;;;;;15.86;56.37;98094.13;5041373;28;20496;-78
2021/05/25 05:43:43;;;;;;;2.70;0.50;;;;;;;15.15;61.55;98083.34;5028146;28;20233;-73
2021/05/25 05:46:10;;;;;;;0.67;0.30;;;;;;;14.79;62.39;98080.72;5040974;28;20217;-72
2021/05/25 05:48:37;;;;;;;1.17;0.50;;;;;;;16.03;58.61;98087.81;5052604;28;20204;-77
2021/05/25 05:51:04;;;;;;;2.50;0.53;;;;;;;16.01;57.19;98094.50;5042812;28;20250;-72
2021/05/25 05:53:32;;;;;;;1.77;0.50;;;;;;;15.49;59.46;98092.59;5026105;28;20313;-72
2021/05/25 05:55:59;;;;;;;0.93;0.40;;;;;;;16.05;54.81;98103.75;5029942;28;20201;-74
2021/05/25 05:58:26;;;;;;;2.50;0.70;;;;;;;15.81;56.31;98102.06;5022938;28;20215;-71
2021/05/25 06:00:58;;;;;;;2.70;0.80;;;;;;;16.56;53.37;98110.06;5015096;28;20200;-73
2021/05/25 06:03:31;;;;;;;1.53;0.40;;;;;;;15.76;54.91;98105.44;5017567;28;20226;-77
2021/05/25 06:06:02;;;;;;;1.40;0.53;;;;;;;15.67;55.72;98104.16;5021224;28;20587;-70
2021/05/25 06:08:38;;;;;;;2.70;0.60;;;;;;;15.66;54.68;98107.88;5028176;28;20210;-74
2021/05/25 06:11:16;;;;;;;0.60;0.40;;;;;;;15.39;54.49;98112.00;5020656;28;20356;-72
2021/05/25 06:13:48;;;;;;;1.83;0.50;;;;;;;15.82;54.57;98111.78;5029755;28;20238;-71
2021/05/25 06:16:19;;;;;;;1.97;1.00;;;;;;;16.05;53.39;98112.63;5024971;28;20241;-72
2021/05/25 06:18:54;;;;;;;1.13;0.60;;;;;;;15.74;53.81;98112.09;5024271;28;20207;-72
2021/05/25 06:24:13;;;;;;;0.83;0.40;;;;;;;16.22;50.59;98110.88;5024689;28;20230;-74
2021/05/25 06:26:46;;;;;;;2.20;0.73;;;;;;;16.25;51.53;98115.78;5033496;28;20236;-70
2021/05/25 06:29:16;;;;;;;0.87;0.50;;;;;;;16.65;49.18;98122.13;5025197;28;20208;-71
2021/05/25 06:31:44;;;;;;;2.80;0.50;;;;;;;16.48;49.96;98132.00;5022234;28;20202;-72
2021/05/25 06:34:20;;;;;;;1.07;0.50;;;;;;;16.18;49.48;98125.88;5025563;28;20223;-72
2021/05/25 06:36:52;;;;;;;0.50;0.30;;;;;;;16.21;49.33;98132.66;5026215;28;20561;-73
2021/05/25 06:39:25;;;;;;;1.20;0.50;;;;;;;16.23;49.79;98136.75;5033746;28;20202;-70
2021/05/25 06:42:03;;;;;;;2.23;0.47;;;;;;;16.09;51.10;98150.66;5027586;28;20233;-71
2021/05/25 06:44:35;;;;;;;1.80;0.80;;;;;;;17.02;48.07;98145.03;5031496;28;20535;-73
2021/05/25 06:47:09;;;;;;;1.23;0.60;;;;;;;17.41;46.27;98146.94;5040030;28;20204;-72
2021/05/25 06:49:40;;;;;;;1.70;0.30;;;;;;;16.84;49.07;98130.88;5033165;28;20232;-72
2021/05/25 06:52:08;;;;;;;0.60;0.60;;;;;;;17.87;43.96;98153.97;5028532;28;20669;-72
2021/05/25 06:54:47;;;;;;;1.67;0.60;;;;;;;17.11;46.34;98149.00;5024032;28;20196;-72
2021/05/25 06:57:16;;;;;;;4.83;0.70;;;;;;;17.82;43.24;98146.63;5031899;28;20199;-71
2021/05/25 06:59:48;;;;;;;1.17;0.40;;;;;;;17.83;44.63;98156.34;5025534;28;20289;-72
2021/05/25 07:02:23;;;;;;;1.00;0.30;;;;;;;18.32;43.92;98157.44;5022750;28;20212;-73
2021/05/25 07:05:03;;;;;;;2.10;0.70;;;;;;;18.04;44.04;98147.53;5024179;28;20223;-72
2021/05/25 07:07:36;;;;;;;1.03;0.50;;;;;;;17.54;45.56;98162.84;5037013;28;20268;-72
2021/05/25 07:10:13;;;;;;;1.10;0.40;;;;;;;17.62;44.50;98156.22;5032032;28;20293;-73
2021/05/25 07:12:45;;;;;;;1.30;0.50;;;;;;;18.27;42.33;98146.56;5024409;28;20240;-71
2021/05/25 07:15:15;;;;;;;2.50;0.60;;;;;;;18.51;41.82;98158.88;5023218;28;20212;-72
2021/05/25 07:17:55;;;;;;;1.80;0.40;;;;;;;17.19;46.00;98159.41;5020944;28;20213;-73
2021/05/25 07:20:22;;;;;;;1.87;0.60;;;;;;;16.91;45.17;98145.88;5022988;28;20748;-71
2021/05/25 07:22:53;;;;;;;1.97;0.37;;;;;;;16.28;47.26;98133.34;5028496;28;20784;-74
2021/05/25 07:25:30;;;;;;;2.57;0.50;;;;;;;17.21;43.93;98132.19;5024607;28;20222;-73
2021/05/25 07:27:57;;;;;;;1.70;0.40;;;;;;;17.77;42.85;98138.44;5026054;28;20563;-77
2021/05/25 07:30:25;;;;;;;0.50;0.37;;;;;;;17.74;42.06;98143.50;5021671;28;20474;-79
2021/05/25 07:32:52;;;;;;;2.70;0.40;;;;;;;17.12;42.44;98169.50;5026040;28;20602;-73
2021/05/25 07:35:19;;;;;;;2.17;0.47;;;;;;;17.82;42.01;98151.19;5026336;28;20207;-71
2021/05/25 07:37:46;;;;;;;1.40;0.40;;;;;;;18.34;39.46;98163.47;5023137;28;20265;-70
2021/05/25 07:40:15;;;;;;;2.00;0.37;;;;;;;19.20;37.67;98163.63;5020343;28;20675;-73
2021/05/25 07:42:43;;;;;;;1.73;0.40;;;;;;;19.58;36.04;98177.09;5019624;28;20721;-73
2021/05/25 07:45:10;;;;;;;1.33;0.47;;;;;;;18.99;37.47;98181.47;5026259;28;20265;-73
2021/05/25 07:47:37;;;;;;;0.97;0.43;;;;;;;18.27;38.38;98162.78;5029266;28;20210;-73
2021/05/25 07:50:13;;;;;;;1.63;0.40;;;;;;;18.27;38.83;98174.41;5029997;28;20211;-73
2021/05/25 07:52:40;;;;;;;2.23;0.60;;;;;;;18.68;38.04;98176.72;5028740;28;20278;-73
2021/05/25 07:55:09;;;;;;;2.10;0.40;;;;;;;18.57;37.57;98179.50;5026711;28;20204;-73
2021/05/25 07:57:41;;;;;;;2.00;0.37;;;;;;;17.48;39.98;98165.69;5021959;28;20215;-73
2021/05/25 08:00:11;;;;;;;2.97;0.70;;;;;;;17.61;40.29;98178.88;5021228;28;20254;-74
2021/05/25 08:02:38;;;;;;;1.23;0.43;;;;;;;17.46;40.73;98167.78;5021406;28;20261;-73
2021/05/25 08:05:07;;;;;;;0.60;0.43;;;;;;;17.16;41.58;98167.97;5022805;28;20249;-72
2021/05/25 08:07:33;;;;;;;1.43;0.97;;;;;;;17.03;41.99;98184.41;5027873;28;20267;-71
2021/05/25 08:10:02;;;;;;;1.83;0.50;;;;;;;17.52;41.19;98185.75;5021553;28;20600;-70
2021/05/25 08:12:29;;;;;;;2.00;0.60;;;;;;;17.86;39.62;98204.47;5030718;28;20240;-74
2021/05/25 08:14:58;;;;;;;1.90;0.70;;;;;;;17.86;39.87;98209.03;5023145;28;20287;-74
2021/05/25 08:17:36;;;;;;;1.40;0.70;;;;;;;17.59;40.12;98205.31;5024892;28;20201;-74
2021/05/25 08:20:14;;;;;;;3.23;0.87;;;;;;;17.50;40.48;98190.53;5024149;28;20213;-74
2021/05/25 08:22:42;;;;;;;1.13;0.40;;;;;;;18.07;38.92;98208.34;5029931;28;20230;-73
2021/05/25 08:25:10;;;;;;;1.47;0.53;;;;;;;17.86;39.09;98215.28;5020950;28;20687;-74
2021/05/25 08:27:36;;;;;;;3.07;0.60;;;;;;;17.42;39.83;98213.31;5026152;28;20210;-71
2021/05/25 08:30:05;;;;;;;1.50;0.50;;;;;;;18.59;38.05;98226.84;5027385;28;20225;-73
2021/05/25 08:32:33;;;;;;;3.07;0.60;;;;;;;17.36;39.58;98235.84;5022752;28;20230;-74
2021/05/25 08:35:00;;;;;;;1.23;0.40;;;;;;;18.23;38.52;98232.69;5028490;28;20305;-73
2021/05/25 08:37:27;;;;;;;0.83;0.77;;;;;;;18.95;37.49;98258.75;5025151;28;20571;-75
2021/05/25 08:39:54;;;;;;;2.37;0.50;;;;;;;19.05;36.70;98241.88;5029135;28;20250;-73
2021/05/25 08:42:21;;;;;;;0.80;0.40;;;;;;;19.17;36.92;98256.13;5027555;28;20212;-74
2021/05/25 08:44:48;;;;;;;3.23;0.87;;;;;;;19.26;37.13;98255.47;5019788;28;20265;-74
2021/05/25 08:47:16;;;;;;;0.70;0.60;;;;;;;19.09;36.09;98261.94;5021317;28;20211;-74
2021/05/25 08:49:46;;;;;;;0.97;0.57;;;;;;;18.79;36.28;98264.22;5029794;28;20201;-74
2021/05/25 08:52:15;;;;;;;2.83;0.60;;;;;;;18.67;37.37;98255.34;5025712;28;20205;-74
2021/05/25 08:54:43;;;;;;;3.10;0.50;;;;;;;19.75;35.54;98259.09;5024931;28;20215;-72
2021/05/25 08:57:11;;;;;;;1.40;0.43;;;;;;;19.15;35.86;98279.91;5025766;28;20580;-74
2021/05/25 08:59:38;;;;;;;3.83;0.47;;;;;;;18.80;36.43;98296.41;5014079;28;20213;-73
2021/05/25 09:02:05;;;;;;;3.03;0.70;;;;;;;18.85;37.46;98282.94;5017118;28;20580;-73
2021/05/25 09:04:59;;;;;;;0.67;0.30;;;;;;;18.39;37.95;98268.94;5023931;28;20207;-73
2021/05/25 09:07:37;;;;;;;3.30;0.87;;;;;;;18.96;37.13;98265.00;5027416;28;20208;-74
2021/05/25 09:10:05;;;;;;;1.00;0.60;;;;;;;19.28;37.25;98276.88;5023643;28;20220;-74
2021/05/25 09:12:38;;;;;;;0.90;0.40;;;;;;;18.59;37.89;98278.19;5026836;28;20285;-75
2021/05/25 09:15:06;;;;;;;0.37;0.30;;;;;;;18.31;39.67;98286.34;5022193;28;20220;-73
2021/05/25 09:17:34;;;;;;;0.90;0.40;;;;;;;19.25;38.01;98285.50;5024357;28;20712;-73
2021/05/25 09:20:03;;;;;;;1.33;0.73;;;;;;;19.57;37.23;98306.25;5025337;28;20207;-72
2021/05/25 09:22:35;;;;;;;0.87;0.47;;;;;;;19.54;36.81;98290.50;5018861;28;20239;-75
2021/05/25 09:25:17;;;;;;;2.67;0.70;;;;;;;20.24;36.13;98298.69;5024679;28;20229;-73
2021/05/25 09:27:47;;;;;;;0.73;0.30;;;;;;;20.13;35.80;98305.06;5025099;28;20537;-72
2021/05/25 09:30:22;;;;;;;3.83;0.80;;;;;;;19.32;37.15;98305.06;5022332;28;20358;-73
2021/05/25 09:32:55;;;;;;;1.77;0.83;;;;;;;19.48;36.60;98323.16;5018603;28;20234;-72
2021/05/25 09:35:24;;;;;;;2.87;0.70;;;;;;;19.44;39.03;98306.59;5021488;28;20201;-72
2021/05/25 09:37:52;;;;;;;1.10;0.60;;;;;;;18.72;39.33;98301.41;5021015;28;20565;-73
2021/05/25 09:40:20;;;;;;;1.60;0.50;;;;;;;18.59;38.73;98313.34;5031698;28;20209;-72
2021/05/25 09:42:48;;;;;;;1.70;0.67;;;;;;;18.67;39.30;98320.22;5022866;28;20236;-72
2021/05/25 09:45:17;;;;;;;1.43;0.50;;;;;;;19.16;38.05;98325.63;5027069;28;20265;-76
2021/05/25 09:47:47;;;;;;;2.30;0.63;;;;;;;18.93;40.46;98325.81;5031532;28;20629;-73
2021/05/25 09:50:16;;;;;;;1.83;0.67;;;;;;;18.70;42.39;98309.75;5014646;28;20662;-73
2021/05/25 09:53:09;;;;;;;1.97;0.50;;;;;;;19.02;41.16;98308.13;5025124;28;20319;-73
2021/05/25 09:55:51;;;;;;;3.40;1.00;;;;;;;19.87;39.22;98312.03;5007938;28;20586;-80
2021/05/25 09:58:19;;;;;;;0.90;0.67;;;;;;;19.13;39.30;98309.09;5032929;28;20653;-74
2021/05/25 10:00:46;;;;;;;6.00;0.83;;;;;;;18.53;39.31;98314.31;5021008;28;20207;-74
2021/05/25 10:03:18;;;;;;;1.13;0.70;;;;;;;19.24;37.94;98321.72;5024156;28;20249;-71
2021/05/25 10:05:48;;;;;;;1.27;0.50;;;;;;;19.48;35.72;98321.28;5019677;28;20226;-72
2021/05/25 10:08:17;;;;;;;3.03;0.60;;;;;;;19.68;36.27;98320.72;5029459;28;20749;-73
2021/05/25 10:10:44;;;;;;;2.30;0.70;;;;;;;19.37;36.05;98326.81;5020894;28;20207;-74
2021/05/25 10:13:12;;;;;;;3.33;0.70;;;;;;;19.75;36.87;98322.19;5038684;28;20611;-74
2021/05/25 10:15:40;;;;;;;1.63;0.70;;;;;;;19.93;36.36;98319.19;5033801;28;20206;-80
2021/05/25 10:20:57;;;;;;;3.80;0.77;;;;;;;20.38;33.73;98336.00;5030674;28;20213;-73
2021/05/25 10:23:27;;;;;;;3.33;0.70;;;;;;;19.47;33.79;98341.31;5035829;28;20222;-74
2021/05/25 10:25:54;;;;;;;1.50;0.70;;;;;;;19.64;34.86;98322.28;5028127;28;20222;-74
2021/05/25 10:28:22;;;;;;;6.63;0.90;;;;;;;19.57;34.72;98332.50;5020055;28;20670;-73
2021/05/25 10:30:50;;;;;;;3.83;0.60;;;;;;;19.74;33.80;98338.69;5030679;28;20224;-75
2021/05/25 10:33:32;;;;;;;2.73;0.80;;;;;;;19.50;34.59;98326.47;5032071;28;20220;-87
2021/05/25 10:36:08;;;;;;;2.80;0.70;;;;;;;19.50;35.52;98338.09;5029883;28;20665;-78
2021/05/25 10:38:54;;;;;;;1.10;0.43;;;;;;;18.69;35.61;98345.97;5030823;28;20263;-76
2021/05/25 10:41:31;;;;;;;4.20;0.63;;;;;;;19.45;33.97;98359.69;5026853;28;20215;-76
2021/05/25 10:43:58;;;;;;;1.70;0.70;;;;;;;18.95;34.70;98360.75;5022845;28;20238;-76
2021/05/25 10:46:28;;;;;;;1.07;0.70;;;;;;;18.71;35.91;98348.44;5026386;28;20225;-76
2021/05/25 10:49:08;;;;;;;1.53;0.67;;;;;;;18.51;36.52;98367.81;5022110;28;20249;-75
2021/05/25 10:52:15;;;;;;;2.17;0.60;;;;;;;18.79;36.91;98366.97;5026310;28;20211;-74
2021/05/25 10:54:58;;;;;;;1.10;0.60;;;;;;;17.79;38.99;98354.19;5022849;28;20203;-75
2021/05/25 10:57:43;;;;;;;3.10;0.67;;;;;;;18.51;39.48;98365.13;5031207;28;20680;-74
2021/05/25 11:00:12;;;;;;;2.60;1.00;;;;;;;18.13;39.31;98364.06;5033269;28;20219;-75
2021/05/25 11:02:56;;;;;;;2.93;0.80;;;;;;;18.77;37.74;98361.81;5032585;28;20725;-76
2021/05/25 11:05:55;;;;;;;1.37;0.60;;;;;;;18.67;41.17;98355.38;5023052;28;20283;-76
2021/05/25 11:08:30;;;;;;;1.13;0.60;;;;;;;18.16;43.61;98341.97;5034594;28;20203;-76
2021/05/25 11:11:15;;;;;;;3.27;0.70;;;;;;;18.24;42.36;98344.28;5037700;28;20258;-74
2021/05/25 11:13:45;;;;;;;2.10;0.80;;;;;;;17.82;44.43;98351.81;5030864;28;20245;-76
2021/05/25 11:16:14;;;;;;;4.40;1.10;;;;;;;17.30;56.35;98341.16;5026734;28;20206;-75
2021/05/25 11:18:45;;;;;;;1.40;0.60;;;;;;;16.95;63.90;98349.25;5025427;28;20228;-72
2021/05/25 11:25:00;;;;;;;6.07;0.90;;;;;;;16.19;76.23;98356.41;5012650;28;20627;-72
2021/05/25 11:27:34;;;;;;;0.70;0.57;;;;;;;15.90;76.43;98343.72;5038721;28;20200;-73
2021/05/25 11:30:04;;;;;;;1.10;0.53;;;;;;;16.13;78.54;98334.94;5034996;28;20229;-74
2021/05/25 11:32:38;;;;;;;3.17;0.93;;;;;;;16.43;76.15;98320.47;5028375;28;20647;-74
2021/05/25 11:35:06;;;;;;;0.80;0.50;;;;;;;17.18;72.28;98324.97;5023029;28;20200;-74
2021/05/25 11:37:35;;;;;;;2.33;0.63;;;;;;;18.11;64.30;98318.38;5037000;28;20213;-74
2021/05/25 11:40:03;;;;;;;0.97;0.60;;;;;;;18.91;59.78;98343.38;5030511;28;20226;-76
2021/05/25 11:42:32;;;;;;;1.77;0.50;;;;;;;17.38;60.35;98344.31;5033787;28;20232;-73
2021/05/25 11:44:59;;;;;;;3.13;0.50;;;;;;;17.19;56.79;98350.94;5020154;28;20213;-73
2021/05/25 11:47:26;;;;;;;1.10;0.40;;;;;;;17.73;58.37;98345.13;5031326;28;20228;-75
2021/05/25 11:49:54;;;;;;;2.67;0.53;;;;;;;17.43;54.85;98355.28;5029316;28;20263;-75
2021/05/25 11:52:24;;;;;;;0.60;0.40;;;;;;;17.55;53.30;98344.47;5017411;28;20213;-73
2021/05/25 11:54:51;;;;;;;1.10;0.63;;;;;;;17.63;50.73;98354.91;5023286;28;20227;-74
2021/05/25 11:57:31;;;;;;;1.60;0.53;;;;;;;18.03;49.63;98344.97;5032836;28;20258;-74